sensor_id;sensor_type;location;lat;lon;timestamp;P1;durP1;ratioP1;P2;durP2;ratioP2
21886;SDS011;11108;49.988;8.182;2023-11-21T00:01:18;1.90;;;1.10;;
21886;SDS011;11108;49.988;8.182;2023-11-21T00:03:43;1.20;;;1.10;;
21886;SDS011;11108;49.988;8.182;2023-11-21T00:06:09;1.20;;;1.20;;
21886;SDS011;11108;49.988;8.182;2023-11-21T00:08:34;1.60;;;1.33;;
21886;SDS011;11108;49.988;8.182;2023-11-21T00:11:00;1.03;;;1.03;;
21886;SDS011;11108;49.988;8.182;2023-11-21T00:13:25;1.20;;;1.20;;
21886;SDS011;11108;49.988;8.182;2023-11-21T00:15:50;2.43;;;1.33;;
21886;SDS011;11108;49.988;8.182;2023-11-21T00:18:15;2.33;;;1.37;;
21886;SDS011;11108;49.988;8.182;2023-11-21T00:20:41;1.07;;;0.90;;
21886;SDS011;11108;49.988;8.182;2023-11-21T00:23:06;1.20;;;1.10;;
21886;SDS011;11108;49.988;8.182;2023-11-21T00:25:32;1.53;;;0.90;;
21886;SDS011;11108;49.988;8.182;2023-11-21T00:27:57;1.20;;;1.07;;
21886;SDS011;11108;49.988;8.182;2023-11-21T00:30:22;1.07;;;0.87;;
21886;SDS011;11108;49.988;8.182;2023-11-21T00:32:47;1.63;;;1.13;;
21886;SDS011;11108;49.988;8.182;2023-11-21T00:35:12;1.00;;;1.00;;
21886;SDS011;11108;49.988;8.182;2023-11-21T00:37:38;1.40;;;1.20;;
21886;SDS011;11108;49.988;8.182;2023-11-21T00:40:04;1.43;;;1.00;;
21886;SDS011;11108;49.988;8.182;2023-11-21T00:42:30;1.77;;;0.90;;
21886;SDS011;11108;49.988;8.182;2023-11-21T00:44:57;1.33;;;1.30;;
21886;SDS011;11108;49.988;8.182;2023-11-21T00:47:22;1.30;;;1.03;;
21886;SDS011;11108;49.988;8.182;2023-11-21T00:49:47;1.27;;;1.17;;
21886;SDS011;11108;49.988;8.182;2023-11-21T00:52:14;1.10;;;1.00;;
21886;SDS011;11108;49.988;8.182;2023-11-21T00:54:39;1.40;;;1.20;;
21886;SDS011;11108;49.988;8.182;2023-11-21T00:57:04;1.30;;;1.20;;
21886;SDS011;11108;49.988;8.182;2023-11-21T00:59:30;1.73;;;1.20;;
21886;SDS011;11108;49.988;8.182;2023-11-21T01:01:55;1.67;;;1.23;;
21886;SDS011;11108;49.988;8.182;2023-11-21T01:04:21;1.27;;;1.20;;
21886;SDS011;11108;49.988;8.182;2023-11-21T01:06:46;1.10;;;1.10;;
21886;SDS011;11108;49.988;8.182;2023-11-21T01:09:12;0.90;;;0.90;;
21886;SDS011;11108;49.988;8.182;2023-11-21T01:11:37;1.00;;;1.00;;
21886;SDS011;11108;49.988;8.182;2023-11-21T01:14:03;1.10;;;1.10;;
21886;SDS011;11108;49.988;8.182;2023-11-21T01:16:29;1.60;;;1.20;;
21886;SDS011;11108;49.988;8.182;2023-11-21T01:18:54;1.60;;;1.00;;
21886;SDS011;11108;49.988;8.182;2023-11-21T01:21:19;0.83;;;0.83;;
21886;SDS011;11108;49.988;8.182;2023-11-21T01:23:44;1.00;;;1.00;;
21886;SDS011;11108;49.988;8.182;2023-11-21T01:26:10;2.00;;;1.10;;
21886;SDS011;11108;49.988;8.182;2023-11-21T01:28:35;1.70;;;1.10;;
21886;SDS011;11108;49.988;8.182;2023-11-21T01:31:00;0.90;;;0.90;;
21886;SDS011;11108;49.988;8.182;2023-11-21T01:33:25;1.20;;;1.10;;
21886;SDS011;11108;49.988;8.182;2023-11-21T01:35:51;0.77;;;0.77;;
21886;SDS011;11108;49.988;8.182;2023-11-21T01:38:18;1.67;;;1.07;;
21886;SDS011;11108;49.988;8.182;2023-11-21T01:40:43;0.90;;;0.90;;
21886;SDS011;11108;49.988;8.182;2023-11-21T01:43:08;1.00;;;0.90;;
21886;SDS011;11108;49.988;8.182;2023-11-21T01:45:34;0.63;;;0.63;;
21886;SDS011;11108;49.988;8.182;2023-11-21T01:47:59;0.90;;;0.90;;
21886;SDS011;11108;49.988;8.182;2023-11-21T01:50:25;0.87;;;0.87;;
21886;SDS011;11108;49.988;8.182;2023-11-21T01:52:51;0.90;;;0.90;;
21886;SDS011;11108;49.988;8.182;2023-11-21T01:55:17;0.90;;;0.90;;
21886;SDS011;11108;49.988;8.182;2023-11-21T01:57:45;0.80;;;0.80;;
21886;SDS011;11108;49.988;8.182;2023-11-21T02:00:11;1.13;;;0.93;;
21886;SDS011;11108;49.988;8.182;2023-11-21T02:02:44;1.43;;;1.03;;
21886;SDS011;11108;49.988;8.182;2023-11-21T02:05:18;1.20;;;1.10;;
21886;SDS011;11108;49.988;8.182;2023-11-21T02:07:44;1.00;;;1.00;;
21886;SDS011;11108;49.988;8.182;2023-11-21T02:10:10;1.00;;;0.90;;
21886;SDS011;11108;49.988;8.182;2023-11-21T02:12:39;1.10;;;1.00;;
21886;SDS011;11108;49.988;8.182;2023-11-21T02:15:05;0.90;;;0.80;;
21886;SDS011;11108;49.988;8.182;2023-11-21T02:17:34;0.93;;;0.93;;
21886;SDS011;11108;49.988;8.182;2023-11-21T02:19:59;0.80;;;0.80;;
21886;SDS011;11108;49.988;8.182;2023-11-21T02:22:26;1.20;;;0.80;;
21886;SDS011;11108;49.988;8.182;2023-11-21T02:24:55;0.80;;;0.80;;
21886;SDS011;11108;49.988;8.182;2023-11-21T02:27:20;1.23;;;1.20;;
21886;SDS011;11108;49.988;8.182;2023-11-21T02:29:48;1.00;;;1.00;;
21886;SDS011;11108;49.988;8.182;2023-11-21T02:32:13;0.87;;;0.77;;
21886;SDS011;11108;49.988;8.182;2023-11-21T02:34:39;0.87;;;0.87;;
21886;SDS011;11108;49.988;8.182;2023-11-21T02:37:04;0.83;;;0.83;;
21886;SDS011;11108;49.988;8.182;2023-11-21T02:39:30;1.27;;;0.80;;
21886;SDS011;11108;49.988;8.182;2023-11-21T02:41:56;0.70;;;0.70;;
21886;SDS011;11108;49.988;8.182;2023-11-21T02:44:21;0.90;;;0.90;;
21886;SDS011;11108;49.988;8.182;2023-11-21T02:46:47;0.70;;;0.70;;
21886;SDS011;11108;49.988;8.182;2023-11-21T02:49:12;0.97;;;0.90;;
21886;SDS011;11108;49.988;8.182;2023-11-21T02:51:37;1.00;;;0.90;;
21886;SDS011;11108;49.988;8.182;2023-11-21T02:54:03;1.03;;;1.03;;
21886;SDS011;11108;49.988;8.182;2023-11-21T02:56:31;0.70;;;0.70;;
21886;SDS011;11108;49.988;8.182;2023-11-21T02:58:56;0.63;;;0.63;;
21886;SDS011;11108;49.988;8.182;2023-11-21T03:01:22;1.03;;;0.90;;
21886;SDS011;11108;49.988;8.182;2023-11-21T03:03:49;0.80;;;0.80;;
21886;SDS011;11108;49.988;8.182;2023-11-21T03:06:16;1.17;;;1.07;;
21886;SDS011;11108;49.988;8.182;2023-11-21T03:08:41;1.33;;;0.63;;
21886;SDS011;11108;49.988;8.182;2023-11-21T03:11:07;1.20;;;1.10;;
21886;SDS011;11108;49.988;8.182;2023-11-21T03:13:33;0.60;;;0.60;;
21886;SDS011;11108;49.988;8.182;2023-11-21T03:15:58;0.70;;;0.70;;
21886;SDS011;11108;49.988;8.182;2023-11-21T03:18:23;0.60;;;0.60;;
21886;SDS011;11108;49.988;8.182;2023-11-21T03:20:48;0.80;;;0.80;;
21886;SDS011;11108;49.988;8.182;2023-11-21T03:23:13;1.40;;;0.90;;
21886;SDS011;11108;49.988;8.182;2023-11-21T03:25:39;0.70;;;0.70;;
21886;SDS011;11108;49.988;8.182;2023-11-21T03:28:04;1.07;;;0.90;;
21886;SDS011;11108;49.988;8.182;2023-11-21T03:30:29;0.70;;;0.70;;
21886;SDS011;11108;49.988;8.182;2023-11-21T03:32:55;0.90;;;0.90;;
21886;SDS011;11108;49.988;8.182;2023-11-21T03:35:20;0.60;;;0.60;;
21886;SDS011;11108;49.988;8.182;2023-11-21T03:37:46;0.73;;;0.73;;
21886;SDS011;11108;49.988;8.182;2023-11-21T03:40:11;0.60;;;0.60;;
21886;SDS011;11108;49.988;8.182;2023-11-21T03:42:37;1.17;;;0.70;;
21886;SDS011;11108;49.988;8.182;2023-11-21T03:45:03;0.60;;;0.60;;
21886;SDS011;11108;49.988;8.182;2023-11-21T03:47:28;0.87;;;0.87;;
21886;SDS011;11108;49.988;8.182;2023-11-21T03:49:53;0.70;;;0.70;;
21886;SDS011;11108;49.988;8.182;2023-11-21T03:52:18;0.70;;;0.70;;
21886;SDS011;11108;49.988;8.182;2023-11-21T03:54:43;0.90;;;0.90;;
21886;SDS011;11108;49.988;8.182;2023-11-21T03:57:09;0.60;;;0.60;;
21886;SDS011;11108;49.988;8.182;2023-11-21T03:59:34;0.60;;;0.60;;
21886;SDS011;11108;49.988;8.182;2023-11-21T04:01:59;0.60;;;0.60;;
21886;SDS011;11108;49.988;8.182;2023-11-21T04:04:24;0.70;;;0.70;;
21886;SDS011;11108;49.988;8.182;2023-11-21T04:06:50;1.80;;;0.70;;
21886;SDS011;11108;49.988;8.182;2023-11-21T04:09:16;0.70;;;0.70;;
21886;SDS011;11108;49.988;8.182;2023-11-21T04:11:42;1.30;;;0.50;;
21886;SDS011;11108;49.988;8.182;2023-11-21T04:14:07;1.63;;;0.80;;
21886;SDS011;11108;49.988;8.182;2023-11-21T04:16:33;0.70;;;0.70;;
21886;SDS011;11108;49.988;8.182;2023-11-21T04:18:58;0.50;;;0.50;;
21886;SDS011;11108;49.988;8.182;2023-11-21T04:21:23;0.60;;;0.60;;
21886;SDS011;11108;49.988;8.182;2023-11-21T04:23:49;0.93;;;0.80;;
21886;SDS011;11108;49.988;8.182;2023-11-21T04:26:14;0.60;;;0.60;;
21886;SDS011;11108;49.988;8.182;2023-11-21T04:28:39;0.50;;;0.50;;
21886;SDS011;11108;49.988;8.182;2023-11-21T04:31:04;0.60;;;0.60;;
21886;SDS011;11108;49.988;8.182;2023-11-21T04:33:30;0.40;;;0.40;;
21886;SDS011;11108;49.988;8.182;2023-11-21T04:35:56;0.77;;;0.70;;
21886;SDS011;11108;49.988;8.182;2023-11-21T04:38:21;0.67;;;0.53;;
21886;SDS011;11108;49.988;8.182;2023-11-21T04:40:47;0.70;;;0.60;;
21886;SDS011;11108;49.988;8.182;2023-11-21T04:43:12;0.90;;;0.70;;
21886;SDS011;11108;49.988;8.182;2023-11-21T04:45:37;0.63;;;0.63;;
21886;SDS011;11108;49.988;8.182;2023-11-21T04:48:02;0.60;;;0.60;;
21886;SDS011;11108;49.988;8.182;2023-11-21T04:50:28;0.70;;;0.70;;
21886;SDS011;11108;49.988;8.182;2023-11-21T04:52:53;1.60;;;0.80;;
21886;SDS011;11108;49.988;8.182;2023-11-21T04:55:19;0.80;;;0.70;;
21886;SDS011;11108;49.988;8.182;2023-11-21T04:57:44;1.03;;;0.70;;
21886;SDS011;11108;49.988;8.182;2023-11-21T05:00:10;0.50;;;0.50;;
21886;SDS011;11108;49.988;8.182;2023-11-21T05:02:35;1.23;;;0.80;;
21886;SDS011;11108;49.988;8.182;2023-11-21T05:05:04;0.47;;;0.47;;
21886;SDS011;11108;49.988;8.182;2023-11-21T05:07:30;0.70;;;0.70;;
21886;SDS011;11108;49.988;8.182;2023-11-21T05:09:56;0.40;;;0.40;;
21886;SDS011;11108;49.988;8.182;2023-11-21T05:12:24;0.80;;;0.80;;
21886;SDS011;11108;49.988;8.182;2023-11-21T05:14:50;0.73;;;0.73;;
21886;SDS011;11108;49.988;8.182;2023-11-21T05:17:15;0.43;;;0.40;;
21886;SDS011;11108;49.988;8.182;2023-11-21T05:19:40;0.93;;;0.63;;
21886;SDS011;11108;49.988;8.182;2023-11-21T05:22:06;0.73;;;0.73;;
21886;SDS011;11108;49.988;8.182;2023-11-21T05:24:31;0.60;;;0.60;;
21886;SDS011;11108;49.988;8.182;2023-11-21T05:26:56;0.83;;;0.83;;
21886;SDS011;11108;49.988;8.182;2023-11-21T05:29:21;0.40;;;0.40;;
21886;SDS011;11108;49.988;8.182;2023-11-21T05:31:47;0.50;;;0.50;;
21886;SDS011;11108;49.988;8.182;2023-11-21T05:34:12;0.50;;;0.50;;
21886;SDS011;11108;49.988;8.182;2023-11-21T05:36:37;0.47;;;0.47;;
21886;SDS011;11108;49.988;8.182;2023-11-21T05:39:02;0.53;;;0.53;;
21886;SDS011;11108;49.988;8.182;2023-11-21T05:41:28;0.80;;;0.50;;
21886;SDS011;11108;49.988;8.182;2023-11-21T05:43:53;0.73;;;0.50;;
21886;SDS011;11108;49.988;8.182;2023-11-21T05:46:19;0.50;;;0.50;;
21886;SDS011;11108;49.988;8.182;2023-11-21T05:48:45;0.73;;;0.70;;
21886;SDS011;11108;49.988;8.182;2023-11-21T05:51:11;0.53;;;0.53;;
21886;SDS011;11108;49.988;8.182;2023-11-21T05:53:37;0.60;;;0.60;;
21886;SDS011;11108;49.988;8.182;2023-11-21T05:56:02;0.50;;;0.50;;
21886;SDS011;11108;49.988;8.182;2023-11-21T05:58:28;0.50;;;0.50;;
21886;SDS011;11108;49.988;8.182;2023-11-21T06:00:54;0.60;;;0.60;;
21886;SDS011;11108;49.988;8.182;2023-11-21T06:03:19;0.80;;;0.80;;
21886;SDS011;11108;49.988;8.182;2023-11-21T06:05:44;0.47;;;0.47;;
21886;SDS011;11108;49.988;8.182;2023-11-21T06:08:09;0.50;;;0.50;;
21886;SDS011;11108;49.988;8.182;2023-11-21T06:10:35;1.90;;;0.73;;
21886;SDS011;11108;49.988;8.182;2023-11-21T06:13:00;0.77;;;0.77;;
21886;SDS011;11108;49.988;8.182;2023-11-21T06:15:26;0.70;;;0.70;;
21886;SDS011;11108;49.988;8.182;2023-11-21T06:17:51;0.80;;;0.57;;
21886;SDS011;11108;49.988;8.182;2023-11-21T06:20:19;0.70;;;0.70;;
21886;SDS011;11108;49.988;8.182;2023-11-21T06:22:46;0.60;;;0.60;;
21886;SDS011;11108;49.988;8.182;2023-11-21T06:25:12;1.97;;;0.70;;
21886;SDS011;11108;49.988;8.182;2023-11-21T06:27:45;0.83;;;0.50;;
21886;SDS011;11108;49.988;8.182;2023-11-21T06:30:10;1.07;;;0.80;;
21886;SDS011;11108;49.988;8.182;2023-11-21T06:32:37;0.50;;;0.50;;
21886;SDS011;11108;49.988;8.182;2023-11-21T06:35:02;0.50;;;0.50;;
21886;SDS011;11108;49.988;8.182;2023-11-21T06:37:29;0.53;;;0.53;;
21886;SDS011;11108;49.988;8.182;2023-11-21T06:39:54;0.60;;;0.53;;
21886;SDS011;11108;49.988;8.182;2023-11-21T06:42:21;0.70;;;0.70;;
21886;SDS011;11108;49.988;8.182;2023-11-21T06:44:46;0.73;;;0.70;;
21886;SDS011;11108;49.988;8.182;2023-11-21T06:47:13;0.63;;;0.63;;
21886;SDS011;11108;49.988;8.182;2023-11-21T06:49:38;0.70;;;0.70;;
21886;SDS011;11108;49.988;8.182;2023-11-21T06:52:04;0.70;;;0.60;;
21886;SDS011;11108;49.988;8.182;2023-11-21T06:54:30;0.60;;;0.60;;
21886;SDS011;11108;49.988;8.182;2023-11-21T06:56:55;0.60;;;0.60;;
21886;SDS011;11108;49.988;8.182;2023-11-21T06:59:21;2.73;;;1.10;;
21886;SDS011;11108;49.988;8.182;2023-11-21T07:01:46;1.30;;;0.60;;
21886;SDS011;11108;49.988;8.182;2023-11-21T07:04:12;0.60;;;0.60;;
21886;SDS011;11108;49.988;8.182;2023-11-21T07:06:37;0.50;;;0.50;;
21886;SDS011;11108;49.988;8.182;2023-11-21T07:09:03;0.80;;;0.80;;
21886;SDS011;11108;49.988;8.182;2023-11-21T07:11:28;0.93;;;0.70;;
21886;SDS011;11108;49.988;8.182;2023-11-21T07:13:53;0.53;;;0.53;;
21886;SDS011;11108;49.988;8.182;2023-11-21T07:16:19;0.53;;;0.53;;
21886;SDS011;11108;49.988;8.182;2023-11-21T07:18:44;1.03;;;0.70;;
21886;SDS011;11108;49.988;8.182;2023-11-21T07:21:10;0.50;;;0.50;;
21886;SDS011;11108;49.988;8.182;2023-11-21T07:23:37;1.13;;;0.73;;
21886;SDS011;11108;49.988;8.182;2023-11-21T07:26:02;0.77;;;0.67;;
21886;SDS011;11108;49.988;8.182;2023-11-21T07:28:28;0.50;;;0.50;;
21886;SDS011;11108;49.988;8.182;2023-11-21T07:30:53;0.73;;;0.60;;
21886;SDS011;11108;49.988;8.182;2023-11-21T07:33:18;2.30;;;0.60;;
21886;SDS011;11108;49.988;8.182;2023-11-21T07:35:43;0.93;;;0.90;;
21886;SDS011;11108;49.988;8.182;2023-11-21T07:38:08;0.57;;;0.50;;
21886;SDS011;11108;49.988;8.182;2023-11-21T07:40:34;0.70;;;0.70;;
21886;SDS011;11108;49.988;8.182;2023-11-21T07:42:59;0.50;;;0.50;;
21886;SDS011;11108;49.988;8.182;2023-11-21T07:45:25;0.80;;;0.60;;
21886;SDS011;11108;49.988;8.182;2023-11-21T07:47:52;1.00;;;0.70;;
21886;SDS011;11108;49.988;8.182;2023-11-21T07:50:17;1.27;;;0.60;;
21886;SDS011;11108;49.988;8.182;2023-11-21T07:52:43;1.27;;;0.70;;
21886;SDS011;11108;49.988;8.182;2023-11-21T07:55:08;0.53;;;0.50;;
21886;SDS011;11108;49.988;8.182;2023-11-21T07:57:33;0.50;;;0.50;;
21886;SDS011;11108;49.988;8.182;2023-11-21T07:59:58;0.90;;;0.90;;
21886;SDS011;11108;49.988;8.182;2023-11-21T08:02:24;0.60;;;0.60;;
21886;SDS011;11108;49.988;8.182;2023-11-21T08:04:51;1.40;;;0.60;;
21886;SDS011;11108;49.988;8.182;2023-11-21T08:07:17;1.33;;;0.50;;
21886;SDS011;11108;49.988;8.182;2023-11-21T08:09:42;2.07;;;0.60;;
21886;SDS011;11108;49.988;8.182;2023-11-21T08:12:09;1.43;;;0.70;;
21886;SDS011;11108;49.988;8.182;2023-11-21T08:14:36;0.60;;;0.60;;
21886;SDS011;11108;49.988;8.182;2023-11-21T08:17:03;1.10;;;0.70;;
21886;SDS011;11108;49.988;8.182;2023-11-21T08:19:29;1.57;;;0.73;;
21886;SDS011;11108;49.988;8.182;2023-11-21T08:21:54;1.73;;;0.70;;
21886;SDS011;11108;49.988;8.182;2023-11-21T08:24:19;2.07;;;0.87;;
21886;SDS011;11108;49.988;8.182;2023-11-21T08:26:44;1.33;;;0.90;;
21886;SDS011;11108;49.988;8.182;2023-11-21T08:29:10;0.60;;;0.60;;
21886;SDS011;11108;49.988;8.182;2023-11-21T08:31:35;0.60;;;0.60;;
21886;SDS011;11108;49.988;8.182;2023-11-21T08:34:01;0.50;;;0.50;;
21886;SDS011;11108;49.988;8.182;2023-11-21T08:36:40;0.77;;;0.70;;
21886;SDS011;11108;49.988;8.182;2023-11-21T08:39:06;0.97;;;0.50;;
21886;SDS011;11108;49.988;8.182;2023-11-21T08:41:31;0.77;;;0.77;;
21886;SDS011;11108;49.988;8.182;2023-11-21T08:43:56;6.20;;;2.50;;
21886;SDS011;11108;49.988;8.182;2023-11-21T08:46:23;9.17;;;3.27;;
21886;SDS011;11108;49.988;8.182;2023-11-21T08:48:50;14.90;;;3.30;;
21886;SDS011;11108;49.988;8.182;2023-11-21T08:51:17;10.63;;;3.17;;
21886;SDS011;11108;49.988;8.182;2023-11-21T08:53:42;10.60;;;3.00;;
21886;SDS011;11108;49.988;8.182;2023-11-21T08:56:08;8.17;;;2.70;;
21886;SDS011;11108;49.988;8.182;2023-11-21T08:58:37;6.10;;;2.80;;
21886;SDS011;11108;49.988;8.182;2023-11-21T09:01:02;8.83;;;2.97;;
21886;SDS011;11108;49.988;8.182;2023-11-21T09:03:28;7.20;;;2.97;;
21886;SDS011;11108;49.988;8.182;2023-11-21T09:05:53;5.13;;;2.13;;
21886;SDS011;11108;49.988;8.182;2023-11-21T09:08:18;5.20;;;2.20;;
21886;SDS011;11108;49.988;8.182;2023-11-21T09:10:44;6.23;;;2.07;;
21886;SDS011;11108;49.988;8.182;2023-11-21T09:13:12;6.47;;;2.30;;
21886;SDS011;11108;49.988;8.182;2023-11-21T09:15:40;5.93;;;1.80;;
21886;SDS011;11108;49.988;8.182;2023-11-21T09:18:07;4.40;;;1.93;;
21886;SDS011;11108;49.988;8.182;2023-11-21T09:20:32;4.40;;;1.73;;
21886;SDS011;11108;49.988;8.182;2023-11-21T09:22:57;1.67;;;1.33;;
21886;SDS011;11108;49.988;8.182;2023-11-21T09:25:22;2.47;;;1.80;;
21886;SDS011;11108;49.988;8.182;2023-11-21T09:27:48;3.17;;;1.70;;
21886;SDS011;11108;49.988;8.182;2023-11-21T09:30:13;5.60;;;1.83;;
21886;SDS011;11108;49.988;8.182;2023-11-21T09:32:39;4.13;;;1.73;;
21886;SDS011;11108;49.988;8.182;2023-11-21T09:35:05;4.07;;;1.50;;
21886;SDS011;11108;49.988;8.182;2023-11-21T09:37:33;3.20;;;1.30;;
21886;SDS011;11108;49.988;8.182;2023-11-21T09:39:58;4.40;;;1.17;;
21886;SDS011;11108;49.988;8.182;2023-11-21T09:42:25;1.70;;;1.07;;
21886;SDS011;11108;49.988;8.182;2023-11-21T09:44:55;2.13;;;1.30;;
21886;SDS011;11108;49.988;8.182;2023-11-21T09:47:24;3.77;;;1.20;;
21886;SDS011;11108;49.988;8.182;2023-11-21T09:49:49;1.67;;;0.97;;
21886;SDS011;11108;49.988;8.182;2023-11-21T09:52:27;1.80;;;1.20;;
21886;SDS011;11108;49.988;8.182;2023-11-21T09:54:53;2.20;;;1.23;;
21886;SDS011;11108;49.988;8.182;2023-11-21T09:57:21;3.33;;;1.10;;
21886;SDS011;11108;49.988;8.182;2023-11-21T09:59:49;2.80;;;1.07;;
21886;SDS011;11108;49.988;8.182;2023-11-21T10:02:16;4.20;;;0.90;;
21886;SDS011;11108;49.988;8.182;2023-11-21T10:04:43;1.47;;;1.17;;
21886;SDS011;11108;49.988;8.182;2023-11-21T10:07:08;2.57;;;1.07;;
21886;SDS011;11108;49.988;8.182;2023-11-21T10:09:35;5.90;;;1.00;;
21886;SDS011;11108;49.988;8.182;2023-11-21T10:12:02;0.80;;;0.73;;
21886;SDS011;11108;49.988;8.182;2023-11-21T10:14:28;2.27;;;0.93;;
21886;SDS011;11108;49.988;8.182;2023-11-21T10:16:54;1.60;;;1.43;;
21886;SDS011;11108;49.988;8.182;2023-11-21T10:19:21;2.20;;;0.80;;
21886;SDS011;11108;49.988;8.182;2023-11-21T10:21:48;2.20;;;1.00;;
21886;SDS011;11108;49.988;8.182;2023-11-21T10:24:14;1.80;;;0.90;;
21886;SDS011;11108;49.988;8.182;2023-11-21T10:26:40;1.43;;;1.00;;
21886;SDS011;11108;49.988;8.182;2023-11-21T10:29:06;2.90;;;0.80;;
21886;SDS011;11108;49.988;8.182;2023-11-21T10:31:32;1.10;;;1.00;;
21886;SDS011;11108;49.988;8.182;2023-11-21T10:34:17;2.67;;;1.07;;
21886;SDS011;11108;49.988;8.182;2023-11-21T10:36:42;1.20;;;1.10;;
21886;SDS011;11108;49.988;8.182;2023-11-21T10:39:08;1.77;;;1.17;;
21886;SDS011;11108;49.988;8.182;2023-11-21T10:41:34;1.30;;;1.10;;
21886;SDS011;11108;49.988;8.182;2023-11-21T10:44:00;2.57;;;1.10;;
21886;SDS011;11108;49.988;8.182;2023-11-21T10:46:25;1.63;;;0.80;;
21886;SDS011;11108;49.988;8.182;2023-11-21T10:48:52;1.07;;;0.90;;
21886;SDS011;11108;49.988;8.182;2023-11-21T10:51:20;1.40;;;0.73;;
21886;SDS011;11108;49.988;8.182;2023-11-21T10:53:45;2.63;;;0.70;;
21886;SDS011;11108;49.988;8.182;2023-11-21T10:56:10;1.40;;;0.83;;
21886;SDS011;11108;49.988;8.182;2023-11-21T10:58:42;1.70;;;1.03;;
21886;SDS011;11108;49.988;8.182;2023-11-21T11:01:08;2.17;;;0.90;;
21886;SDS011;11108;49.988;8.182;2023-11-21T11:03:36;1.03;;;1.00;;
21886;SDS011;11108;49.988;8.182;2023-11-21T11:06:02;2.73;;;1.13;;
21886;SDS011;11108;49.988;8.182;2023-11-21T11:08:29;1.33;;;1.00;;
21886;SDS011;11108;49.988;8.182;2023-11-21T11:10:55;3.40;;;1.07;;
21886;SDS011;11108;49.988;8.182;2023-11-21T11:13:20;2.33;;;1.20;;
21886;SDS011;11108;49.988;8.182;2023-11-21T11:15:49;3.33;;;1.23;;
21886;SDS011;11108;49.988;8.182;2023-11-21T11:18:15;4.00;;;1.27;;
21886;SDS011;11108;49.988;8.182;2023-11-21T11:20:40;3.20;;;1.30;;
21886;SDS011;11108;49.988;8.182;2023-11-21T11:23:19;2.93;;;1.73;;
21886;SDS011;11108;49.988;8.182;2023-11-21T11:26:20;12.47;;;3.53;;
21886;SDS011;11108;49.988;8.182;2023-11-21T11:31:21;9.17;;;3.23;;
21886;SDS011;11108;49.988;8.182;2023-11-21T11:34:01;11.93;;;4.20;;
21886;SDS011;11108;49.988;8.182;2023-11-21T11:38:55;13.13;;;7.67;;
21886;SDS011;11108;49.988;8.182;2023-11-21T11:41:29;17.60;;;8.80;;
21886;SDS011;11108;49.988;8.182;2023-11-21T11:43:55;16.17;;;11.07;;
21886;SDS011;11108;49.988;8.182;2023-11-21T11:46:21;13.17;;;9.80;;
21886;SDS011;11108;49.988;8.182;2023-11-21T11:49:05;18.17;;;12.57;;
21886;SDS011;11108;49.988;8.182;2023-11-21T11:51:30;16.90;;;12.53;;
21886;SDS011;11108;49.988;8.182;2023-11-21T11:53:56;15.80;;;12.93;;
21886;SDS011;11108;49.988;8.182;2023-11-21T11:56:25;20.70;;;13.97;;
21886;SDS011;11108;49.988;8.182;2023-11-21T11:58:55;15.63;;;13.63;;
21886;SDS011;11108;49.988;8.182;2023-11-21T12:01:20;18.60;;;13.73;;
21886;SDS011;11108;49.988;8.182;2023-11-21T12:06:33;19.10;;;14.67;;
21886;SDS011;11108;49.988;8.182;2023-11-21T12:09:01;20.33;;;14.83;;
21886;SDS011;11108;49.988;8.182;2023-11-21T12:11:30;16.97;;;14.43;;
21886;SDS011;11108;49.988;8.182;2023-11-21T12:13:55;16.40;;;14.33;;
21886;SDS011;11108;49.988;8.182;2023-11-21T12:16:20;17.90;;;14.47;;
21886;SDS011;11108;49.988;8.182;2023-11-21T12:18:48;19.20;;;14.37;;
21886;SDS011;11108;49.988;8.182;2023-11-21T12:21:13;19.37;;;14.27;;
21886;SDS011;11108;49.988;8.182;2023-11-21T12:23:39;17.97;;;13.30;;
21886;SDS011;11108;49.988;8.182;2023-11-21T12:26:05;18.03;;;14.10;;
21886;SDS011;11108;49.988;8.182;2023-11-21T12:28:31;18.33;;;13.70;;
21886;SDS011;11108;49.988;8.182;2023-11-21T12:30:56;18.10;;;12.80;;
21886;SDS011;11108;49.988;8.182;2023-11-21T12:33:22;17.33;;;12.77;;
21886;SDS011;11108;49.988;8.182;2023-11-21T12:35:47;17.37;;;12.43;;
21886;SDS011;11108;49.988;8.182;2023-11-21T12:38:13;15.13;;;11.93;;
21886;SDS011;11108;49.988;8.182;2023-11-21T12:40:38;14.73;;;12.47;;
21886;SDS011;11108;49.988;8.182;2023-11-21T12:43:04;12.53;;;11.17;;
21886;SDS011;11108;49.988;8.182;2023-11-21T12:45:31;14.47;;;11.37;;
21886;SDS011;11108;49.988;8.182;2023-11-21T12:47:58;12.77;;;11.47;;
21886;SDS011;11108;49.988;8.182;2023-11-21T12:50:25;17.20;;;11.13;;
21886;SDS011;11108;49.988;8.182;2023-11-21T12:52:58;15.70;;;10.57;;
21886;SDS011;11108;49.988;8.182;2023-11-21T12:55:23;11.70;;;10.37;;
21886;SDS011;11108;49.988;8.182;2023-11-21T12:57:50;13.97;;;10.17;;
21886;SDS011;11108;49.988;8.182;2023-11-21T13:00:17;11.67;;;9.87;;
21886;SDS011;11108;49.988;8.182;2023-11-21T13:02:52;14.17;;;9.70;;
21886;SDS011;11108;49.988;8.182;2023-11-21T13:05:29;10.73;;;9.27;;
21886;SDS011;11108;49.988;8.182;2023-11-21T13:07:55;13.00;;;9.73;;
21886;SDS011;11108;49.988;8.182;2023-11-21T13:10:23;16.33;;;9.50;;
21886;SDS011;11108;49.988;8.182;2023-11-21T13:12:52;12.07;;;8.83;;
21886;SDS011;11108;49.988;8.182;2023-11-21T13:15:17;11.13;;;8.60;;
21886;SDS011;11108;49.988;8.182;2023-11-21T13:17:45;9.67;;;8.67;;
21886;SDS011;11108;49.988;8.182;2023-11-21T13:20:11;8.63;;;7.73;;
21886;SDS011;11108;49.988;8.182;2023-11-21T13:25:13;10.03;;;8.17;;
21886;SDS011;11108;49.988;8.182;2023-11-21T13:27:39;9.47;;;7.97;;
21886;SDS011;11108;49.988;8.182;2023-11-21T13:30:05;11.10;;;8.10;;
21886;SDS011;11108;49.988;8.182;2023-11-21T13:32:33;9.33;;;7.63;;
21886;SDS011;11108;49.988;8.182;2023-11-21T13:34:58;11.53;;;7.60;;
21886;SDS011;11108;49.988;8.182;2023-11-21T13:37:24;10.43;;;7.00;;
21886;SDS011;11108;49.988;8.182;2023-11-21T13:39:53;10.90;;;7.00;;
21886;SDS011;11108;49.988;8.182;2023-11-21T13:42:19;7.50;;;6.50;;
21886;SDS011;11108;49.988;8.182;2023-11-21T13:44:47;7.57;;;6.60;;
21886;SDS011;11108;49.988;8.182;2023-11-21T13:47:14;8.87;;;7.00;;
21886;SDS011;11108;49.988;8.182;2023-11-21T13:49:39;10.37;;;6.57;;
21886;SDS011;11108;49.988;8.182;2023-11-21T13:52:06;8.60;;;6.07;;
21886;SDS011;11108;49.988;8.182;2023-11-21T13:54:32;6.90;;;6.20;;
21886;SDS011;11108;49.988;8.182;2023-11-21T13:56:57;7.20;;;5.63;;
21886;SDS011;11108;49.988;8.182;2023-11-21T13:59:24;7.47;;;5.80;;
21886;SDS011;11108;49.988;8.182;2023-11-21T14:01:55;8.40;;;5.77;;
21886;SDS011;11108;49.988;8.182;2023-11-21T14:04:22;7.53;;;5.90;;
21886;SDS011;11108;49.988;8.182;2023-11-21T14:07:08;7.60;;;5.53;;
21886;SDS011;11108;49.988;8.182;2023-11-21T14:09:50;5.90;;;5.30;;
21886;SDS011;11108;49.988;8.182;2023-11-21T14:12:15;8.97;;;5.97;;
21886;SDS011;11108;49.988;8.182;2023-11-21T14:14:41;5.77;;;5.07;;
21886;SDS011;11108;49.988;8.182;2023-11-21T14:17:06;8.43;;;4.90;;
21886;SDS011;11108;49.988;8.182;2023-11-21T14:19:32;7.30;;;5.03;;
21886;SDS011;11108;49.988;8.182;2023-11-21T14:21:58;5.67;;;4.67;;
21886;SDS011;11108;49.988;8.182;2023-11-21T14:24:23;7.87;;;4.87;;
21886;SDS011;11108;49.988;8.182;2023-11-21T14:26:49;6.37;;;4.50;;
21886;SDS011;11108;49.988;8.182;2023-11-21T14:29:18;5.77;;;4.27;;
21886;SDS011;11108;49.988;8.182;2023-11-21T14:31:50;5.20;;;4.50;;
21886;SDS011;11108;49.988;8.182;2023-11-21T14:34:18;6.37;;;4.50;;
21886;SDS011;11108;49.988;8.182;2023-11-21T14:36:43;6.20;;;4.53;;
21886;SDS011;11108;49.988;8.182;2023-11-21T14:39:09;5.03;;;4.20;;
21886;SDS011;11108;49.988;8.182;2023-11-21T14:41:45;5.47;;;4.10;;
21886;SDS011;11108;49.988;8.182;2023-11-21T14:44:11;6.83;;;3.90;;
21886;SDS011;11108;49.988;8.182;2023-11-21T14:46:37;5.13;;;3.67;;
21886;SDS011;11108;49.988;8.182;2023-11-21T14:49:04;4.13;;;3.67;;
21886;SDS011;11108;49.988;8.182;2023-11-21T14:51:48;4.20;;;3.40;;